sensor_id;sensor_type;location;lat;lon;timestamp;temperature;humidity
17918;DHT22;9084;50.956;3.106;2022-10-26T00:01:12;14.10;99.90
17918;DHT22;9084;50.956;3.106;2022-10-26T00:03:39;14.10;99.90
17918;DHT22;9084;50.956;3.106;2022-10-26T00:06:14;14.10;99.90
17918;DHT22;9084;50.956;3.106;2022-10-26T00:08:40;14.00;99.90
17918;DHT22;9084;50.956;3.106;2022-10-26T00:11:09;14.00;99.90
17918;DHT22;9084;50.956;3.106;2022-10-26T00:13:35;13.90;99.90
17918;DHT22;9084;50.956;3.106;2022-10-26T00:16:16;13.90;99.90
17918;DHT22;9084;50.956;3.106;2022-10-26T00:18:48;13.90;99.90
17918;DHT22;9084;50.956;3.106;2022-10-26T00:21:14;13.90;99.90
17918;DHT22;9084;50.956;3.106;2022-10-26T00:23:43;13.90;99.90
17918;DHT22;9084;50.956;3.106;2022-10-26T00:26:12;13.90;99.90
17918;DHT22;9084;50.956;3.106;2022-10-26T00:28:40;13.90;99.90
17918;DHT22;9084;50.956;3.106;2022-10-26T00:31:11;13.90;99.90
17918;DHT22;9084;50.956;3.106;2022-10-26T00:33:37;13.90;99.90
17918;DHT22;9084;50.956;3.106;2022-10-26T00:36:06;13.90;99.90
17918;DHT22;9084;50.956;3.106;2022-10-26T00:38:35;14.00;99.90
17918;DHT22;9084;50.956;3.106;2022-10-26T00:41:02;14.00;99.90
17918;DHT22;9084;50.956;3.106;2022-10-26T00:45:59;14.10;99.90
17918;DHT22;9084;50.956;3.106;2022-10-26T00:48:30;14.10;99.90
17918;DHT22;9084;50.956;3.106;2022-10-26T00:51:08;14.10;99.90
17918;DHT22;9084;50.956;3.106;2022-10-26T00:53:35;14.10;99.90
17918;DHT22;9084;50.956;3.106;2022-10-26T00:56:03;14.20;99.90
17918;DHT22;9084;50.956;3.106;2022-10-26T00:58:29;14.20;99.90
17918;DHT22;9084;50.956;3.106;2022-10-26T01:00:58;14.30;99.90
17918;DHT22;9084;50.956;3.106;2022-10-26T01:03:23;14.40;99.90
17918;DHT22;9084;50.956;3.106;2022-10-26T01:05:49;14.40;99.90
17918;DHT22;9084;50.956;3.106;2022-10-26T01:08:18;14.40;99.90
17918;DHT22;9084;50.956;3.106;2022-10-26T01:10:47;14.40;99.90
17918;DHT22;9084;50.956;3.106;2022-10-26T01:13:14;14.50;99.90
17918;DHT22;9084;50.956;3.106;2022-10-26T01:32:01;14.60;99.90
17918;DHT22;9084;50.956;3.106;2022-10-26T01:34:37;14.60;99.90
17918;DHT22;9084;50.956;3.106;2022-10-26T01:37:11;14.60;99.90
17918;DHT22;9084;50.956;3.106;2022-10-26T01:39:43;14.60;99.90
17918;DHT22;9084;50.956;3.106;2022-10-26T01:42:10;14.60;99.90
17918;DHT22;9084;50.956;3.106;2022-10-26T01:45:14;14.70;99.90
17918;DHT22;9084;50.956;3.106;2022-10-26T01:47:33;14.60;99.90
17918;DHT22;9084;50.956;3.106;2022-10-26T01:50:02;14.60;99.90
17918;DHT22;9084;50.956;3.106;2022-10-26T01:52:28;14.60;99.90
17918;DHT22;9084;50.956;3.106;2022-10-26T01:57:54;14.60;99.90
17918;DHT22;9084;50.956;3.106;2022-10-26T02:00:28;14.60;99.90
17918;DHT22;9084;50.956;3.106;2022-10-26T02:03:13;14.60;99.90
17918;DHT22;9084;50.956;3.106;2022-10-26T02:08:18;14.70;99.90
17918;DHT22;9084;50.956;3.106;2022-10-26T02:11:16;14.60;99.90
17918;DHT22;9084;50.956;3.106;2022-10-26T02:19:23;14.70;99.90
17918;DHT22;9084;50.956;3.106;2022-10-26T02:21:59;14.70;99.90
17918;DHT22;9084;50.956;3.106;2022-10-26T02:24:27;14.70;99.90
17918;DHT22;9084;50.956;3.106;2022-10-26T02:26:55;14.70;99.90
17918;DHT22;9084;50.956;3.106;2022-10-26T02:29:22;14.70;99.90
17918;DHT22;9084;50.956;3.106;2022-10-26T02:31:49;14.70;99.90
17918;DHT22;9084;50.956;3.106;2022-10-26T02:34:21;14.70;99.90
17918;DHT22;9084;50.956;3.106;2022-10-26T02:36:49;14.80;99.90
17918;DHT22;9084;50.956;3.106;2022-10-26T02:39:18;14.80;99.90
17918;DHT22;9084;50.956;3.106;2022-10-26T02:41:47;14.80;99.90
17918;DHT22;9084;50.956;3.106;2022-10-26T02:44:28;14.90;99.90
17918;DHT22;9084;50.956;3.106;2022-10-26T02:46:57;14.90;99.90
17918;DHT22;9084;50.956;3.106;2022-10-26T02:49:24;14.90;99.90
17918;DHT22;9084;50.956;3.106;2022-10-26T02:52:03;14.90;99.90
17918;DHT22;9084;50.956;3.106;2022-10-26T02:54:53;14.80;99.90
17918;DHT22;9084;50.956;3.106;2022-10-26T02:57:43;14.80;99.90
17918;DHT22;9084;50.956;3.106;2022-10-26T03:00:09;14.80;99.90
17918;DHT22;9084;50.956;3.106;2022-10-26T03:02:36;14.80;99.90
17918;DHT22;9084;50.956;3.106;2022-10-26T03:05:09;14.80;99.90
17918;DHT22;9084;50.956;3.106;2022-10-26T03:07:37;14.80;99.90
17918;DHT22;9084;50.956;3.106;2022-10-26T03:10:05;14.90;99.90
17918;DHT22;9084;50.956;3.106;2022-10-26T03:12:33;14.90;99.90
17918;DHT22;9084;50.956;3.106;2022-10-26T03:15:05;14.90;99.90
17918;DHT22;9084;50.956;3.106;2022-10-26T03:17:31;15.00;99.90
17918;DHT22;9084;50.956;3.106;2022-10-26T03:19:57;15.00;99.90
17918;DHT22;9084;50.956;3.106;2022-10-26T03:22:26;15.00;99.90
17918;DHT22;9084;50.956;3.106;2022-10-26T03:24:51;15.00;99.90
17918;DHT22;9084;50.956;3.106;2022-10-26T03:27:17;15.00;99.90
17918;DHT22;9084;50.956;3.106;2022-10-26T03:29:44;15.00;99.90
17918;DHT22;9084;50.956;3.106;2022-10-26T03:32:09;15.00;99.90
17918;DHT22;9084;50.956;3.106;2022-10-26T03:34:35;15.00;99.90
17918;DHT22;9084;50.956;3.106;2022-10-26T03:37:00;14.90;99.90
17918;DHT22;9084;50.956;3.106;2022-10-26T03:39:28;14.90;99.90
17918;DHT22;9084;50.956;3.106;2022-10-26T03:41:56;14.90;99.90
17918;DHT22;9084;50.956;3.106;2022-10-26T03:44:22;14.90;99.90
17918;DHT22;9084;50.956;3.106;2022-10-26T03:46:48;14.90;99.90
17918;DHT22;9084;50.956;3.106;2022-10-26T03:49:16;14.90;99.90
17918;DHT22;9084;50.956;3.106;2022-10-26T03:51:41;14.90;99.90
17918;DHT22;9084;50.956;3.106;2022-10-26T03:54:07;14.90;99.90
17918;DHT22;9084;50.956;3.106;2022-10-26T03:56:35;14.90;99.90
17918;DHT22;9084;50.956;3.106;2022-10-26T03:59:01;15.00;99.90
17918;DHT22;9084;50.956;3.106;2022-10-26T04:01:27;15.00;99.90
17918;DHT22;9084;50.956;3.106;2022-10-26T04:03:52;15.00;99.90
17918;DHT22;9084;50.956;3.106;2022-10-26T04:06:20;15.00;99.90
17918;DHT22;9084;50.956;3.106;2022-10-26T04:08:46;15.00;99.90
17918;DHT22;9084;50.956;3.106;2022-10-26T04:11:14;15.10;99.90
17918;DHT22;9084;50.956;3.106;2022-10-26T04:13:42;15.00;99.90
17918;DHT22;9084;50.956;3.106;2022-10-26T04:16:08;15.00;99.90
17918;DHT22;9084;50.956;3.106;2022-10-26T04:18:34;15.00;99.90
17918;DHT22;9084;50.956;3.106;2022-10-26T04:21:00;15.00;99.90
17918;DHT22;9084;50.956;3.106;2022-10-26T04:23:28;15.00;99.90
17918;DHT22;9084;50.956;3.106;2022-10-26T04:25:56;15.00;99.90
17918;DHT22;9084;50.956;3.106;2022-10-26T04:28:22;15.00;99.90
17918;DHT22;9084;50.956;3.106;2022-10-26T04:30:52;15.00;99.90
17918;DHT22;9084;50.956;3.106;2022-10-26T04:33:18;15.00;99.90
17918;DHT22;9084;50.956;3.106;2022-10-26T04:35:43;15.00;99.90
17918;DHT22;9084;50.956;3.106;2022-10-26T04:38:12;15.00;99.90
17918;DHT22;9084;50.956;3.106;2022-10-26T04:40:38;15.00;99.90
17918;DHT22;9084;50.956;3.106;2022-10-26T04:43:04;14.90;99.90
17918;DHT22;9084;50.956;3.106;2022-10-26T04:45:31;14.90;99.90
17918;DHT22;9084;50.956;3.106;2022-10-26T04:48:07;14.80;99.90
17918;DHT22;9084;50.956;3.106;2022-10-26T04:50:34;14.80;99.90
17918;DHT22;9084;50.956;3.106;2022-10-26T04:53:00;14.80;99.90
17918;DHT22;9084;50.956;3.106;2022-10-26T04:55:26;14.70;99.90
17918;DHT22;9084;50.956;3.106;2022-10-26T04:57:54;14.60;99.90
17918;DHT22;9084;50.956;3.106;2022-10-26T05:00:22;14.60;99.90
17918;DHT22;9084;50.956;3.106;2022-10-26T05:02:47;14.60;99.90
17918;DHT22;9084;50.956;3.106;2022-10-26T05:05:13;14.60;99.90
17918;DHT22;9084;50.956;3.106;2022-10-26T05:07:39;14.60;99.90
17918;DHT22;9084;50.956;3.106;2022-10-26T05:10:05;14.60;99.90
17918;DHT22;9084;50.956;3.106;2022-10-26T05:12:36;14.50;99.90
17918;DHT22;9084;50.956;3.106;2022-10-26T05:15:05;14.40;99.90
17918;DHT22;9084;50.956;3.106;2022-10-26T05:17:31;14.40;99.90
17918;DHT22;9084;50.956;3.106;2022-10-26T05:19:57;14.30;99.90
17918;DHT22;9084;50.956;3.106;2022-10-26T05:22:32;14.20;99.90
17918;DHT22;9084;50.956;3.106;2022-10-26T05:24:57;14.20;99.90
17918;DHT22;9084;50.956;3.106;2022-10-26T05:27:23;14.20;99.90
17918;DHT22;9084;50.956;3.106;2022-10-26T05:29:49;14.20;99.90
17918;DHT22;9084;50.956;3.106;2022-10-26T05:32:15;14.20;99.90
17918;DHT22;9084;50.956;3.106;2022-10-26T05:34:45;14.30;99.90
17918;DHT22;9084;50.956;3.106;2022-10-26T05:37:14;14.30;99.90
17918;DHT22;9084;50.956;3.106;2022-10-26T05:39:42;14.30;99.90
17918;DHT22;9084;50.956;3.106;2022-10-26T05:42:28;14.30;99.90
17918;DHT22;9084;50.956;3.106;2022-10-26T05:44:56;14.30;99.90
17918;DHT22;9084;50.956;3.106;2022-10-26T05:47:22;14.40;99.90
17918;DHT22;9084;50.956;3.106;2022-10-26T05:49:47;14.30;99.90
17918;DHT22;9084;50.956;3.106;2022-10-26T05:52:13;14.30;99.90
17918;DHT22;9084;50.956;3.106;2022-10-26T05:54:39;14.30;99.90
17918;DHT22;9084;50.956;3.106;2022-10-26T05:57:10;14.40;99.90
17918;DHT22;9084;50.956;3.106;2022-10-26T05:59:37;14.30;99.90
17918;DHT22;9084;50.956;3.106;2022-10-26T06:02:25;14.30;99.90
17918;DHT22;9084;50.956;3.106;2022-10-26T06:05:02;14.30;99.90
17918;DHT22;9084;50.956;3.106;2022-10-26T06:07:31;14.30;99.90
17918;DHT22;9084;50.956;3.106;2022-10-26T06:09:58;14.30;99.90
17918;DHT22;9084;50.956;3.106;2022-10-26T06:12:26;14.20;99.90
17918;DHT22;9084;50.956;3.106;2022-10-26T06:14:57;14.60;99.90
17918;DHT22;9084;50.956;3.106;2022-10-26T06:17:56;14.30;99.90
17918;DHT22;9084;50.956;3.106;2022-10-26T06:20:36;14.30;99.90
17918;DHT22;9084;50.956;3.106;2022-10-26T06:26:09;14.20;99.90
17918;DHT22;9084;50.956;3.106;2022-10-26T06:29:06;14.20;99.90
17918;DHT22;9084;50.956;3.106;2022-10-26T06:31:32;14.30;99.90
17918;DHT22;9084;50.956;3.106;2022-10-26T06:34:01;14.30;99.90
17918;DHT22;9084;50.956;3.106;2022-10-26T06:36:30;14.30;99.90
17918;DHT22;9084;50.956;3.106;2022-10-26T06:39:06;14.40;99.90
17918;DHT22;9084;50.956;3.106;2022-10-26T06:41:35;14.40;99.90
17918;DHT22;9084;50.956;3.106;2022-10-26T06:44:02;14.50;99.90
17918;DHT22;9084;50.956;3.106;2022-10-26T06:46:42;14.50;99.90
17918;DHT22;9084;50.956;3.106;2022-10-26T06:54:54;14.50;99.90
17918;DHT22;9084;50.956;3.106;2022-10-26T06:57:24;14.50;99.90
17918;DHT22;9084;50.956;3.106;2022-10-26T06:59:56;14.60;99.90
17918;DHT22;9084;50.956;3.106;2022-10-26T07:02:25;14.70;99.90
17918;DHT22;9084;50.956;3.106;2022-10-26T07:04:50;14.70;99.90
17918;DHT22;9084;50.956;3.106;2022-10-26T07:07:21;14.70;99.90
17918;DHT22;9084;50.956;3.106;2022-10-26T07:09:53;14.80;99.90
17918;DHT22;9084;50.956;3.106;2022-10-26T07:12:21;14.90;99.90
17918;DHT22;9084;50.956;3.106;2022-10-26T07:14:47;14.90;99.90
17918;DHT22;9084;50.956;3.106;2022-10-26T07:17:15;14.90;99.90
17918;DHT22;9084;50.956;3.106;2022-10-26T07:19:41;14.90;99.90
17918;DHT22;9084;50.956;3.106;2022-10-26T07:22:09;15.00;99.90
17918;DHT22;9084;50.956;3.106;2022-10-26T07:24:38;15.00;99.90
17918;DHT22;9084;50.956;3.106;2022-10-26T07:27:04;15.10;99.90
17918;DHT22;9084;50.956;3.106;2022-10-26T07:29:31;15.20;99.90
17918;DHT22;9084;50.956;3.106;2022-10-26T07:31:59;15.20;99.90
17918;DHT22;9084;50.956;3.106;2022-10-26T07:34:27;15.30;99.90
17918;DHT22;9084;50.956;3.106;2022-10-26T07:36:56;15.40;99.90
17918;DHT22;9084;50.956;3.106;2022-10-26T07:39:23;15.50;99.90
17918;DHT22;9084;50.956;3.106;2022-10-26T07:41:52;15.60;99.90
17918;DHT22;9084;50.956;3.106;2022-10-26T07:44:17;15.60;99.90
17918;DHT22;9084;50.956;3.106;2022-10-26T07:46:43;15.60;99.90
17918;DHT22;9084;50.956;3.106;2022-10-26T07:49:12;15.60;99.90
17918;DHT22;9084;50.956;3.106;2022-10-26T07:51:37;15.70;99.90
17918;DHT22;9084;50.956;3.106;2022-10-26T07:54:03;15.70;99.90
17918;DHT22;9084;50.956;3.106;2022-10-26T07:56:30;15.70;99.90
17918;DHT22;9084;50.956;3.106;2022-10-26T07:58:56;15.70;99.90
17918;DHT22;9084;50.956;3.106;2022-10-26T08:01:22;15.70;99.90
17918;DHT22;9084;50.956;3.106;2022-10-26T08:03:51;15.60;99.90
17918;DHT22;9084;50.956;3.106;2022-10-26T08:06:17;15.70;99.90
17918;DHT22;9084;50.956;3.106;2022-10-26T08:08:43;15.70;99.90
17918;DHT22;9084;50.956;3.106;2022-10-26T08:11:12;15.70;99.90
17918;DHT22;9084;50.956;3.106;2022-10-26T08:13:37;15.70;99.90
17918;DHT22;9084;50.956;3.106;2022-10-26T08:16:05;15.70;99.90
17918;DHT22;9084;50.956;3.106;2022-10-26T08:18:31;15.80;99.90
17918;DHT22;9084;50.956;3.106;2022-10-26T08:21:05;15.80;99.90
17918;DHT22;9084;50.956;3.106;2022-10-26T08:23:32;15.80;99.90
17918;DHT22;9084;50.956;3.106;2022-10-26T08:25:59;15.90;99.90
17918;DHT22;9084;50.956;3.106;2022-10-26T08:28:28;15.90;99.90
17918;DHT22;9084;50.956;3.106;2022-10-26T08:30:54;15.90;99.90
17918;DHT22;9084;50.956;3.106;2022-10-26T08:33:20;16.00;99.90
17918;DHT22;9084;50.956;3.106;2022-10-26T08:35:53;16.00;99.90
17918;DHT22;9084;50.956;3.106;2022-10-26T08:38:19;16.00;99.90
17918;DHT22;9084;50.956;3.106;2022-10-26T08:40:47;16.10;99.90
17918;DHT22;9084;50.956;3.106;2022-10-26T08:46:10;16.20;99.90
17918;DHT22;9084;50.956;3.106;2022-10-26T08:48:47;16.20;99.90
17918;DHT22;9084;50.956;3.106;2022-10-26T08:51:19;16.30;99.90
17918;DHT22;9084;50.956;3.106;2022-10-26T08:53:56;16.30;99.90
17918;DHT22;9084;50.956;3.106;2022-10-26T08:56:26;16.40;99.90
17918;DHT22;9084;50.956;3.106;2022-10-26T08:59:12;16.40;99.90
17918;DHT22;9084;50.956;3.106;2022-10-26T09:01:41;16.40;99.90
17918;DHT22;9084;50.956;3.106;2022-10-26T09:04:11;16.40;99.90
17918;DHT22;9084;50.956;3.106;2022-10-26T09:09:24;16.50;99.90
17918;DHT22;9084;50.956;3.106;2022-10-26T09:23:41;16.70;99.90
17918;DHT22;9084;50.956;3.106;2022-10-26T09:26:23;16.70;99.90
17918;DHT22;9084;50.956;3.106;2022-10-26T09:28:51;16.70;99.90
17918;DHT22;9084;50.956;3.106;2022-10-26T09:31:17;16.70;99.90
17918;DHT22;9084;50.956;3.106;2022-10-26T09:33:43;16.70;99.90
17918;DHT22;9084;50.956;3.106;2022-10-26T09:36:16;16.80;99.90
17918;DHT22;9084;50.956;3.106;2022-10-26T09:38:55;16.80;99.90
17918;DHT22;9084;50.956;3.106;2022-10-26T09:41:36;16.90;99.90
17918;DHT22;9084;50.956;3.106;2022-10-26T09:49:41;17.10;99.90
17918;DHT22;9084;50.956;3.106;2022-10-26T09:52:11;17.10;99.90
17918;DHT22;9084;50.956;3.106;2022-10-26T09:54:37;17.10;99.90
17918;DHT22;9084;50.956;3.106;2022-10-26T09:57:03;17.20;99.90
17918;DHT22;9084;50.956;3.106;2022-10-26T09:59:33;17.20;99.90
17918;DHT22;9084;50.956;3.106;2022-10-26T10:02:00;17.30;99.90
17918;DHT22;9084;50.956;3.106;2022-10-26T10:04:30;17.30;99.90
17918;DHT22;9084;50.956;3.106;2022-10-26T10:09:26;17.40;99.90
17918;DHT22;9084;50.956;3.106;2022-10-26T10:11:56;17.40;99.90
17918;DHT22;9084;50.956;3.106;2022-10-26T10:14:28;17.50;99.90
17918;DHT22;9084;50.956;3.106;2022-10-26T10:17:00;17.50;99.90
17918;DHT22;9084;50.956;3.106;2022-10-26T10:19:32;17.50;99.90
17918;DHT22;9084;50.956;3.106;2022-10-26T10:22:00;17.60;99.90
17918;DHT22;9084;50.956;3.106;2022-10-26T10:24:29;17.60;99.90
17918;DHT22;9084;50.956;3.106;2022-10-26T10:27:00;17.60;99.90
17918;DHT22;9084;50.956;3.106;2022-10-26T10:29:39;17.70;99.90
17918;DHT22;9084;50.956;3.106;2022-10-26T10:32:05;17.80;99.90
17918;DHT22;9084;50.956;3.106;2022-10-26T10:34:31;17.80;99.90
17918;DHT22;9084;50.956;3.106;2022-10-26T10:36:59;17.90;99.90
17918;DHT22;9084;50.956;3.106;2022-10-26T10:39:41;17.90;99.90
17918;DHT22;9084;50.956;3.106;2022-10-26T10:42:24;17.90;99.90
17918;DHT22;9084;50.956;3.106;2022-10-26T10:44:54;18.00;99.90
17918;DHT22;9084;50.956;3.106;2022-10-26T10:47:23;18.10;99.90
17918;DHT22;9084;50.956;3.106;2022-10-26T10:50:14;18.10;99.90
17918;DHT22;9084;50.956;3.106;2022-10-26T10:52:44;18.10;99.90
17918;DHT22;9084;50.956;3.106;2022-10-26T11:00:22;18.20;99.90
17918;DHT22;9084;50.956;3.106;2022-10-26T11:11:22;18.40;99.90
17918;DHT22;9084;50.956;3.106;2022-10-26T11:16:55;18.50;99.90
17918;DHT22;9084;50.956;3.106;2022-10-26T11:19:32;18.50;99.90
17918;DHT22;9084;50.956;3.106;2022-10-26T11:21:58;18.50;99.90
17918;DHT22;9084;50.956;3.106;2022-10-26T11:24:37;18.60;99.90
17918;DHT22;9084;50.956;3.106;2022-10-26T11:27:13;18.50;99.90
17918;DHT22;9084;50.956;3.106;2022-10-26T11:29:52;18.60;99.90
17918;DHT22;9084;50.956;3.106;2022-10-26T11:35:25;18.70;99.90
17918;DHT22;9084;50.956;3.106;2022-10-26T11:40:58;18.80;99.90
17918;DHT22;9084;50.956;3.106;2022-10-26T11:43:47;18.80;99.90
17918;DHT22;9084;50.956;3.106;2022-10-26T11:53:57;18.90;99.90
17918;DHT22;9084;50.956;3.106;2022-10-26T11:56:48;18.90;99.90
17918;DHT22;9084;50.956;3.106;2022-10-26T11:59:24;19.00;99.90
17918;DHT22;9084;50.956;3.106;2022-10-26T12:01:53;19.10;99.90
17918;DHT22;9084;50.956;3.106;2022-10-26T12:04:22;19.10;99.90
17918;DHT22;9084;50.956;3.106;2022-10-26T12:06:53;19.10;99.90
17918;DHT22;9084;50.956;3.106;2022-10-26T12:09:26;19.20;99.90
17918;DHT22;9084;50.956;3.106;2022-10-26T12:12:03;19.20;99.90
17918;DHT22;9084;50.956;3.106;2022-10-26T12:14:41;19.30;99.90
17918;DHT22;9084;50.956;3.106;2022-10-26T12:17:40;19.30;99.90
17918;DHT22;9084;50.956;3.106;2022-10-26T12:23:15;19.40;99.90
17918;DHT22;9084;50.956;3.106;2022-10-26T12:25:45;19.40;99.90
17918;DHT22;9084;50.956;3.106;2022-10-26T12:33:58;19.60;92.90
17918;DHT22;9084;50.956;3.106;2022-10-26T12:37:09;19.60;99.10
17918;DHT22;9084;50.956;3.106;2022-10-26T12:39:44;19.60;89.60
17918;DHT22;9084;50.956;3.106;2022-10-26T12:52:53;19.80;74.70
17918;DHT22;9084;50.956;3.106;2022-10-26T12:55:37;19.90;63.60
17918;DHT22;9084;50.956;3.106;2022-10-26T13:06:36;20.20;61.10
17918;DHT22;9084;50.956;3.106;2022-10-26T13:09:21;20.30;59.80
17918;DHT22;9084;50.956;3.106;2022-10-26T13:11:51;20.50;56.50
17918;DHT22;9084;50.956;3.106;2022-10-26T13:14:22;20.70;51.80
17918;DHT22;9084;50.956;3.106;2022-10-26T13:16:49;20.90;32.30
17918;DHT22;9084;50.956;3.106;2022-10-26T13:21:51;20.90;16.90
17918;DHT22;9084;50.956;3.106;2022-10-26T13:24:20;20.80;17.50
17918;DHT22;9084;50.956;3.106;2022-10-26T13:30:20;20.80;23.80
17918;DHT22;9084;50.956;3.106;2022-10-26T13:32:19;20.70;25.00
17918;DHT22;9084;50.956;3.106;2022-10-26T13:34:46;20.70;27.80
17918;DHT22;9084;50.956;3.106;2022-10-26T13:37:20;20.70;25.60
17918;DHT22;9084;50.956;3.106;2022-10-26T13:39:48;20.60;17.60
17918;DHT22;9084;50.956;3.106;2022-10-26T13:42:20;20.70;24.60
17918;DHT22;9084;50.956;3.106;2022-10-26T13:44:58;20.60;17.40
17918;DHT22;9084;50.956;3.106;2022-10-26T13:50:31;20.80;21.30
17918;DHT22;9084;50.956;3.106;2022-10-26T13:53:05;20.90;16.20
17918;DHT22;9084;50.956;3.106;2022-10-26T13:55:49;20.90;13.90
17918;DHT22;9084;50.956;3.106;2022-10-26T13:58:35;21.00;12.90
17918;DHT22;9084;50.956;3.106;2022-10-26T14:03:34;21.10;21.00
17918;DHT22;9084;50.956;3.106;2022-10-26T14:06:10;21.30;17.20
17918;DHT22;9084;50.956;3.106;2022-10-26T14:08:39;21.30;10.10
17918;DHT22;9084;50.956;3.106;2022-10-26T14:11:10;21.30;3.60
17918;DHT22;9084;50.956;3.106;2022-10-26T14:13:37;21.40;6.80
17918;DHT22;9084;50.956;3.106;2022-10-26T14:16:09;21.30;9.20
17918;DHT22;9084;50.956;3.106;2022-10-26T14:18:36;21.20;11.00
17918;DHT22;9084;50.956;3.106;2022-10-26T14:21:10;21.10;13.40
17918;DHT22;9084;50.956;3.106;2022-10-26T14:24:00;20.90;19.60
17918;DHT22;9084;50.956;3.106;2022-10-26T14:26:39;20.80;27.10
17918;DHT22;9084;50.956;3.106;2022-10-26T14:29:23;20.70;29.00
17918;DHT22;9084;50.956;3.106;2022-10-26T14:31:52;20.70;36.50
17918;DHT22;9084;50.956;3.106;2022-10-26T14:34:19;20.70;34.90
17918;DHT22;9084;50.956;3.106;2022-10-26T14:36:58;20.70;40.60
17918;DHT22;9084;50.956;3.106;2022-10-26T14:39:45;20.60;42.00
17918;DHT22;9084;50.956;3.106;2022-10-26T14:42:28;20.60;44.80
17918;DHT22;9084;50.956;3.106;2022-10-26T14:44:57;20.60;51.30
17918;DHT22;9084;50.956;3.106;2022-10-26T14:47:26;20.50;52.80
17918;DHT22;9084;50.956;3.106;2022-10-26T14:49:53;20.50;53.90
17918;DHT22;9084;50.956;3.106;2022-10-26T14:52:36;20.50;57.90
17918;DHT22;9084;50.956;3.106;2022-10-26T14:57:37;20.50;63.70
17918;DHT22;9084;50.956;3.106;2022-10-26T15:00:22;20.40;66.40
17918;DHT22;9084;50.956;3.106;2022-10-26T15:02:53;20.40;77.10
17918;DHT22;9084;50.956;3.106;2022-10-26T15:07:56;20.20;88.50
17918;DHT22;9084;50.956;3.106;2022-10-26T15:13:29;20.00;89.70
17918;DHT22;9084;50.956;3.106;2022-10-26T15:16:14;19.90;90.30
17918;DHT22;9084;50.956;3.106;2022-10-26T15:18:48;19.90;90.30
17918;DHT22;9084;50.956;3.106;2022-10-26T15:21:34;19.90;88.20
17918;DHT22;9084;50.956;3.106;2022-10-26T15:24:01;20.00;82.00
17918;DHT22;9084;50.956;3.106;2022-10-26T15:26:30;20.00;78.30
17918;DHT22;9084;50.956;3.106;2022-10-26T15:28:57;20.10;71.10
17918;DHT22;9084;50.956;3.106;2022-10-26T15:31:29;20.20;62.50
17918;DHT22;9084;50.956;3.106;2022-10-26T15:36:29;20.10;56.30
17918;DHT22;9084;50.956;3.106;2022-10-26T15:38:57;20.10;54.00
17918;DHT22;9084;50.956;3.106;2022-10-26T15:41:31;20.00;58.70
17918;DHT22;9084;50.956;3.106;2022-10-26T15:43:58;19.90;68.00
17918;DHT22;9084;50.956;3.106;2022-10-26T15:46:32;19.90;70.90
17918;DHT22;9084;50.956;3.106;2022-10-26T15:48:59;19.80;70.60
17918;DHT22;9084;50.956;3.106;2022-10-26T15:51:31;19.80;67.70
17918;DHT22;9084;50.956;3.106;2022-10-26T15:53:57;19.70;62.00
17918;DHT22;9084;50.956;3.106;2022-10-26T15:56:24;19.50;69.50
17918;DHT22;9084;50.956;3.106;2022-10-26T15:58:51;19.40;78.60
17918;DHT22;9084;50.956;3.106;2022-10-26T16:01:20;19.30;84.70
17918;DHT22;9084;50.956;3.106;2022-10-26T16:03:46;19.20;89.40
17918;DHT22;9084;50.956;3.106;2022-10-26T16:06:17;19.10;91.70
17918;DHT22;9084;50.956;3.106;2022-10-26T16:08:51;19.00;94.70
17918;DHT22;9084;50.956;3.106;2022-10-26T16:11:20;18.90;98.70
17918;DHT22;9084;50.956;3.106;2022-10-26T16:13:46;18.90;99.80
17918;DHT22;9084;50.956;3.106;2022-10-26T16:16:13;18.80;99.90
17918;DHT22;9084;50.956;3.106;2022-10-26T16:18:40;18.60;99.90
17918;DHT22;9084;50.956;3.106;2022-10-26T16:21:10;18.50;99.90
17918;DHT22;9084;50.956;3.106;2022-10-26T16:23:39;18.40;99.90
17918;DHT22;9084;50.956;3.106;2022-10-26T16:26:08;18.30;99.90
17918;DHT22;9084;50.956;3.106;2022-10-26T16:28:37;18.10;99.90
17918;DHT22;9084;50.956;3.106;2022-10-26T16:31:06;18.00;99.90
17918;DHT22;9084;50.956;3.106;2022-10-26T16:33:37;18.00;99.90
17918;DHT22;9084;50.956;3.106;2022-10-26T16:36:04;17.90;99.90
17918;DHT22;9084;50.956;3.106;2022-10-26T16:38:32;17.90;99.90
17918;DHT22;9084;50.956;3.106;2022-10-26T16:41:14;17.90;99.90
17918;DHT22;9084;50.956;3.106;2022-10-26T16:43:44;17.80;99.90
17918;DHT22;9084;50.956;3.106;2022-10-26T16:46:17;17.70;99.90
17918;DHT22;9084;50.956;3.106;2022-10-26T16:48:44;17.70;99.90
17918;DHT22;9084;50.956;3.106;2022-10-26T16:51:15;17.60;99.90
17918;DHT22;9084;50.956;3.106;2022-10-26T16:53:48;17.50;99.90
17918;DHT22;9084;50.956;3.106;2022-10-26T16:56:21;17.50;99.90
17918;DHT22;9084;50.956;3.106;2022-10-26T16:58:49;17.40;99.90
17918;DHT22;9084;50.956;3.106;2022-10-26T17:01:16;17.40;99.90
17918;DHT22;9084;50.956;3.106;2022-10-26T17:03:48;17.40;99.90
17918;DHT22;9084;50.956;3.106;2022-10-26T17:06:17;17.40;99.90
17918;DHT22;9084;50.956;3.106;2022-10-26T17:08:43;17.40;99.90
17918;DHT22;9084;50.956;3.106;2022-10-26T17:11:17;17.40;99.90
17918;DHT22;9084;50.956;3.106;2022-10-26T17:13:51;17.50;99.90
17918;DHT22;9084;50.956;3.106;2022-10-26T17:16:20;17.50;99.90
17918;DHT22;9084;50.956;3.106;2022-10-26T17:18:47;17.50;99.90
17918;DHT22;9084;50.956;3.106;2022-10-26T17:21:15;17.50;99.90
17918;DHT22;9084;50.956;3.106;2022-10-26T17:23:41;17.50;99.90
17918;DHT22;9084;50.956;3.106;2022-10-26T17:26:11;17.60;99.90
17918;DHT22;9084;50.956;3.106;2022-10-26T17:28:42;17.60;99.90
17918;DHT22;9084;50.956;3.106;2022-10-26T17:31:13;17.60;99.90
17918;DHT22;9084;50.956;3.106;2022-10-26T17:33:41;17.70;99.90
17918;DHT22;9084;50.956;3.106;2022-10-26T17:36:08;17.60;99.90
17918;DHT22;9084;50.956;3.106;2022-10-26T17:38:37;17.60;99.90
17918;DHT22;9084;50.956;3.106;2022-10-26T17:41:07;17.70;99.90
17918;DHT22;9084;50.956;3.106;2022-10-26T17:43:37;17.70;99.90
17918;DHT22;9084;50.956;3.106;2022-10-26T17:46:08;17.70;99.90
17918;DHT22;9084;50.956;3.106;2022-10-26T17:48:34;17.70;99.90
17918;DHT22;9084;50.956;3.106;2022-10-26T17:51:05;17.70;99.90
17918;DHT22;9084;50.956;3.106;2022-10-26T17:53:34;17.70;99.90
17918;DHT22;9084;50.956;3.106;2022-10-26T17:56:08;17.80;99.90
17918;DHT22;9084;50.956;3.106;2022-10-26T17:58:37;17.80;99.90
17918;DHT22;9084;50.956;3.106;2022-10-26T18:01:07;17.80;99.90
17918;DHT22;9084;50.956;3.106;2022-10-26T18:03:33;17.70;99.90
17918;DHT22;9084;50.956;3.106;2022-10-26T18:06:02;17.70;99.90
17918;DHT22;9084;50.956;3.106;2022-10-26T18:08:32;17.70;99.90
17918;DHT22;9084;50.956;3.106;2022-10-26T18:10:58;17.70;99.90
17918;DHT22;9084;50.956;3.106;2022-10-26T18:13:27;17.70;99.90
17918;DHT22;9084;50.956;3.106;2022-10-26T18:15:53;17.70;99.90
17918;DHT22;9084;50.956;3.106;2022-10-26T18:18:19;17.80;99.90
17918;DHT22;9084;50.956;3.106;2022-10-26T18:20:49;17.80;99.90
17918;DHT22;9084;50.956;3.106;2022-10-26T18:23:15;17.80;99.90
17918;DHT22;9084;50.956;3.106;2022-10-26T18:25:41;17.90;99.90
17918;DHT22;9084;50.956;3.106;2022-10-26T18:28:10;17.90;99.90
17918;DHT22;9084;50.956;3.106;2022-10-26T18:30:38;17.90;99.90
17918;DHT22;9084;50.956;3.106;2022-10-26T18:33:04;17.80;99.90